Nearby METAR Reports

 

KAVP - Avoca/Wilkes B., Pennsylvania, USA
Distance from station: N 16mi, 25km
Updated: 04/22/2021 9:54am
Overcast
Overcast
 Wind from NNW
Wind: NNW 21 mph , 33 km/h, Gust: 26 mph , 43 km/h
Temperature: 36°F , 2°C
Wind Chill: 25°F , -4°C
Dew Point: 18°F , -8°C
Humidity: 48%
Barometer: 29.88 inHg , 1011.9 hPa
Clouds: Overcast
Visibility: 10 miles , 16 km
Cloud details: Mostly cloudy 4300 ft
Overcast 5000 ft
2021/04/22 13:54 KAVP 221354Z 33018G23KT 10SM BKN043 OVC050 02/M08 A2988 RMK AO2 SLP123 T00171078
KMPO - Mt. Pocono, Pennsylvania, USA
Distance from station: E 20mi, 33km
Updated: 04/22/2021 9:53am
Overcast
Overcast
 Wind from WNW
Wind: WNW 21 mph , 33 km/h, Gust: 26 mph , 43 km/h
Temperature: 30°F , -1°C
Wind Chill: 17°F , -8°C
Dew Point: 16°F , -9°C
Humidity: 55%
Barometer: 29.79 inHg , 1008.8 hPa
Clouds: Overcast
Visibility: 10 miles , 16 km
Cloud details: Overcast 3500 ft
2021/04/22 13:53 KMPO 221353Z AUTO 30018G23KT 10SM OVC035 M01/M09 A2979 RMK AO2 PK WND 29034/1304 SLP107 T10061089
 
KABE - Allentown, Pennsylvania, USA
Distance from station: SSE 36mi, 58km
Updated: 04/22/2021 9:51am
Clear
Clear
 Wind from NW
Wind: NW 16 mph , 26 km/h, Gust: 25 mph , 41 km/h
Temperature: 39°F , 4°C
Wind Chill: 30°F , -1°C
Dew Point: 18°F , -8°C
Humidity: 42%
Barometer: 29.90 inHg , 1012.5 hPa
Clouds: Clear
Visibility: 10 miles , 16 km
2021/04/22 13:51 KABE 221351Z 31014G22KT 10SM CLR 04/M08 A2990 RMK AO2 PK WND 28027/1328 SLP129 T00391083
KXLL - Allentown Queen, Pennsylvania, USA
Distance from station: SSE 41mi, 65km
Updated: 04/22/2021 10:35am
Clear
Clear
 Wind from WNW
Wind: WNW 20 mph , 31 km/h, Gust: 32 mph , 52 km/h
Temperature: 41°F , 5°C
Wind Chill: 32°F , 0°C
Dew Point: 16°F , -9°C
Humidity: 36%
Barometer: 29.93 inHg , 1013.5 hPa
Clouds: Clear
Visibility: 10 miles , 16 km
2021/04/22 14:35 KXLL 221435Z AUTO 29017G28KT 10SM CLR 05/M09 A2993 RMK AO2